createdAt,value
2022-11-26T00:01:43.015Z,95103.63
2022-11-26T00:04:10.165Z,95104.34
2022-11-26T00:06:41.781Z,95106.94
2022-11-26T00:09:14.785Z,95118.84
2022-11-26T00:11:41.602Z,95115.69
2022-11-26T00:14:17.126Z,95119.31
2022-11-26T00:16:44.305Z,95114.16
2022-11-26T00:19:10.807Z,95123.22
2022-11-26T00:21:42.169Z,95125.34
2022-11-26T00:24:26.526Z,95125.63
2022-11-26T00:26:55.909Z,95124.09
2022-11-26T00:29:22.326Z,95124.63
2022-11-26T00:31:48.774Z,95124.63
2022-11-26T00:34:15.214Z,95126.19
2022-11-26T00:36:43.493Z,95129.31
2022-11-26T00:39:15.315Z,95124.69
2022-11-26T00:41:41.745Z,95125.72
2022-11-26T00:44:21.461Z,95125.16
2022-11-26T00:46:48.474Z,95130.34
2022-11-26T00:49:16.073Z,95122.56
2022-11-26T00:51:43.096Z,95121.03
2022-11-26T00:54:13.570Z,95118.44
2022-11-26T00:56:40.775Z,95118.66
2022-11-26T00:59:09.447Z,95132.38
2022-11-26T01:01:35.912Z,95130.81
2022-11-26T01:04:02.370Z,95121.50
2022-11-26T01:06:33.900Z,95136.22
2022-11-26T01:09:01.171Z,95139.53
2022-11-26T01:11:27.593Z,95141.06
2022-11-26T01:13:55.209Z,95147.28
2022-11-26T01:16:29.349Z,95141.56
2022-11-26T01:18:58.276Z,95150.63
2022-11-26T01:21:27.555Z,95154.00
2022-11-26T01:23:54.169Z,95149.09
2022-11-26T01:26:24.078Z,95157.06
2022-11-26T01:28:51.040Z,95158.56
2022-11-26T01:31:22.584Z,95166.31
2022-11-26T01:33:49.578Z,95164.19
2022-11-26T01:36:28.723Z,95174.53
2022-11-26T01:38:58.068Z,95165.22
2022-11-26T01:41:27.350Z,95178.72
2022-11-26T01:43:57.912Z,95180.50
2022-11-26T01:46:26.421Z,95180.50
2022-11-26T01:48:53.941Z,95185.91
2022-11-26T01:51:27.189Z,95190.06
2022-11-26T01:53:53.712Z,95201.19
2022-11-26T01:56:34.092Z,95194.97
2022-11-26T01:59:22.211Z,95193.72
2022-11-26T02:01:50.614Z,95197.09
2022-11-26T02:04:28.908Z,95201.59
2022-11-26T02:06:56.654Z,95200.31
2022-11-26T02:09:24.948Z,95199.88
2022-11-26T02:11:51.716Z,95203.78
2022-11-26T02:14:22.514Z,95214.66
2022-11-26T02:17:02.489Z,95204.84
2022-11-26T02:20:10.796Z,95202.59
2022-11-26T02:23:06.231Z,95209.09
2022-11-26T02:25:53.749Z,95200.78
2022-11-26T02:28:39.541Z,95203.94
2022-11-26T02:31:10.939Z,95213.81
2022-11-26T02:33:46.399Z,95214.81
2022-11-26T02:36:19.157Z,95219.97
2022-11-26T02:38:45.770Z,95220.22
2022-11-26T02:41:12.200Z,95220.44
2022-11-26T02:43:39.327Z,95224.16
2022-11-26T02:46:10.983Z,95224.94
2022-11-26T02:48:43.184Z,95224.16
2022-11-26T02:51:18.192Z,95226.81
2022-11-26T02:53:47.183Z,95224.22
2022-11-26T02:56:21.340Z,95238.72
2022-11-26T02:58:50.823Z,95237.16
2022-11-26T03:01:29.410Z,95235.03
2022-11-26T03:04:02.377Z,95233.38
2022-11-26T03:06:32.826Z,95247.34
2022-11-26T03:08:59.500Z,95253.78
2022-11-26T03:11:25.963Z,95250.63
2022-11-26T03:13:52.471Z,95245.69
2022-11-26T03:16:19.212Z,95258.63
2022-11-26T03:18:45.663Z,95258.09
2022-11-26T03:21:12.067Z,95264.25
2022-11-26T03:23:38.445Z,95264.03
2022-11-26T03:26:04.868Z,95259.63
2022-11-26T03:28:31.370Z,95265.84
2022-11-26T03:30:57.782Z,95275.41
2022-11-26T03:33:24.203Z,95275.63
2022-11-26T03:35:50.641Z,95272.47
2022-11-26T03:38:17.209Z,95267.63
2022-11-26T03:40:43.929Z,95277.19
2022-11-26T03:43:10.444Z,95283.16
2022-11-26T03:45:36.890Z,95282.38
2022-11-26T03:48:03.444Z,95286.66
2022-11-26T03:50:29.852Z,95294.97
2022-11-26T03:52:56.238Z,95299.38
2022-11-26T03:55:22.694Z,95304.75
2022-11-26T03:57:49.116Z,95300.06
2022-11-26T04:00:15.903Z,95295.91
2022-11-26T04:02:42.318Z,95303.88
2022-11-26T04:05:09.020Z,95306.25
2022-11-26T04:07:35.436Z,95308.84
2022-11-26T04:10:01.890Z,95307.25
2022-11-26T04:12:28.279Z,95309.06
2022-11-26T04:14:54.655Z,95301.56
2022-11-26T04:17:21.046Z,95313.69
2022-11-26T04:19:47.438Z,95309.06
2022-11-26T04:22:13.847Z,95317.81
2022-11-26T04:24:40.524Z,95311.66
2022-11-26T04:27:07.241Z,95317.38
2022-11-26T04:29:33.662Z,95315.81
2022-11-26T04:32:00.089Z,95327.72
2022-11-26T04:34:26.568Z,95317.38
2022-11-26T04:36:53.084Z,95325.13
2022-11-26T04:39:19.547Z,95312.44
2022-11-26T04:41:46.205Z,95313.44
2022-11-26T04:44:12.652Z,95311.44
2022-11-26T04:46:39.193Z,95317.94
2022-11-26T04:49:05.743Z,95306.00
2022-11-26T04:51:32.135Z,95325.78
2022-11-26T04:54:02.762Z,95325.00
2022-11-26T04:56:29.779Z,95332.75
2022-11-26T04:58:56.186Z,95330.94
2022-11-26T05:01:23.652Z,95329.91
2022-11-26T05:03:50.584Z,95335.88
2022-11-26T05:06:17.059Z,95321.16
2022-11-26T05:08:43.507Z,95335.66
2022-11-26T05:11:09.903Z,95331.28
2022-11-26T05:13:36.316Z,95327.13
2022-11-26T05:16:02.984Z,95325.88
2022-11-26T05:18:29.383Z,95337.78
2022-11-26T05:20:55.808Z,95341.38
2022-11-26T05:23:22.300Z,95344.50
2022-11-26T05:25:50.268Z,95353.59
2022-11-26T05:28:16.659Z,95354.41
2022-11-26T05:30:43.082Z,95359.56
2022-11-26T05:33:09.563Z,95355.88
2022-11-26T05:35:37.432Z,95343.97
2022-11-26T05:38:03.891Z,95360.81
2022-11-26T05:40:30.369Z,95356.44
2022-11-26T05:42:56.732Z,95352.28
2022-11-26T05:45:23.277Z,95358.00
2022-11-26T05:47:49.785Z,95358.78
2022-11-26T05:50:16.884Z,95360.34
2022-11-26T05:52:43.284Z,95346.41
2022-11-26T05:55:10.033Z,95357.22
2022-11-26T05:57:37.424Z,95358.94
2022-11-26T06:00:05.362Z,95348.38
2022-11-26T06:02:38.475Z,95353.56
2022-11-26T06:05:05.624Z,95355.84
2022-11-26T06:07:32.136Z,95352.94
2022-11-26T06:09:58.628Z,95356.44
2022-11-26T06:12:25.048Z,95359.00
2022-11-26T06:14:51.446Z,95355.53
2022-11-26T06:17:17.896Z,95369.25
2022-11-26T06:19:44.356Z,95371.06
2022-11-26T06:22:10.796Z,95368.59
2022-11-26T06:24:37.894Z,95373.50
2022-11-26T06:27:04.955Z,95378.34
2022-11-26T06:29:31.412Z,95378.59
2022-11-26T06:31:57.857Z,95382.88
2022-11-26T06:34:24.528Z,95392.53
2022-11-26T06:36:51.150Z,95386.81
2022-11-26T06:39:17.525Z,95389.94
2022-11-26T06:41:44.011Z,95392.31
2022-11-26T06:44:10.481Z,95389.19
2022-11-26T06:46:37.981Z,95403.19
2022-11-26T06:49:06.157Z,95407.59
2022-11-26T06:51:33.360Z,95406.03
2022-11-26T06:53:59.814Z,95421.84
2022-11-26T06:56:26.233Z,95407.13
2022-11-26T06:58:55.075Z,95421.19
2022-11-26T07:01:24.144Z,95419.38
2022-11-26T07:03:50.873Z,95427.44
2022-11-26T07:06:26.445Z,95426.44
2022-11-26T07:08:54.423Z,95427.78
2022-11-26T07:11:22.065Z,95424.06
2022-11-26T07:13:49.064Z,95419.78
2022-11-26T07:16:16.105Z,95428.72
2022-11-26T07:18:42.638Z,95434.44
2022-11-26T07:21:11.849Z,95442.53
2022-11-26T07:23:39.584Z,95432.72
2022-11-26T07:26:07.536Z,95437.25
2022-11-26T07:28:35.013Z,95438.56
2022-11-26T07:31:11.549Z,95439.91
2022-11-26T07:33:41.384Z,95441.00
2022-11-26T07:36:20.590Z,95456.63
2022-11-26T07:38:47.884Z,95450.44
2022-11-26T07:41:17.902Z,95457.41
2022-11-26T07:43:45.134Z,95462.38
2022-11-26T07:46:15.524Z,95460.34
2022-11-26T07:48:42.064Z,95463.16
2022-11-26T07:51:16.503Z,95472.72
2022-11-26T07:53:42.913Z,95473.19
2022-11-26T07:56:09.372Z,95474.72
2022-11-26T07:58:35.795Z,95473.50
2022-11-26T08:01:16.960Z,95479.00
2022-11-26T08:03:46.175Z,95482.38
2022-11-26T08:06:15.068Z,95483.72
2022-11-26T08:08:41.624Z,95488.44
2022-11-26T08:11:25.312Z,95490.66
2022-11-26T08:13:54.572Z,95495.72
2022-11-26T08:16:21.282Z,95507.03
2022-11-26T08:18:47.898Z,95500.00
2022-11-26T08:21:14.336Z,95493.81
2022-11-26T08:23:40.755Z,95505.13
2022-11-26T08:28:59.462Z,95501.16
2022-11-26T08:31:27.735Z,95497.72
2022-11-26T08:33:58.787Z,95503.22
2022-11-26T08:36:26.700Z,95501.38
2022-11-26T08:38:53.424Z,95505.88
2022-11-26T08:41:19.936Z,95503.06
2022-11-26T08:46:32.876Z,95509.53
2022-11-26T08:48:59.353Z,95517.38
2022-11-26T08:51:25.851Z,95514.31
2022-11-26T08:53:52.764Z,95517.00
2022-11-26T08:56:19.325Z,95515.59
2022-11-26T08:58:46.493Z,95514.88
2022-11-26T09:01:24.776Z,95523.31
2022-11-26T09:03:52.869Z,95522.28
2022-11-26T09:06:21.406Z,95506.50
2022-11-26T09:09:20.714Z,95516.22
2022-11-26T09:11:58.301Z,95520.25
2022-11-26T09:14:27.477Z,95521.19
2022-11-26T09:16:56.119Z,95513.47
2022-11-26T09:19:23.205Z,95518.66
2022-11-26T09:21:50.070Z,95524.63
2022-11-26T09:24:17.307Z,95525.31
2022-11-26T09:26:44.450Z,95522.16
2022-11-26T09:29:15.966Z,95530.88
2022-11-26T09:32:07.481Z,95523.94
2022-11-26T09:34:31.291Z,95531.25
2022-11-26T09:36:57.725Z,95521.13
2022-11-26T09:39:24.116Z,95533.88
2022-11-26T09:42:07.247Z,95535.88
2022-11-26T09:44:39.620Z,95533.59
2022-11-26T09:47:20.473Z,95539.06
2022-11-26T09:50:11.418Z,95533.03
2022-11-26T09:52:48.343Z,95526.38
2022-11-26T09:55:17.525Z,95536.47
2022-11-26T09:57:51.601Z,95520.38
2022-11-26T10:00:42.189Z,95539.50
2022-11-26T10:03:16.160Z,95538.78
2022-11-26T10:05:50.600Z,95544.53
2022-11-26T10:08:32.199Z,95540.28
2022-11-26T10:11:10.619Z,95530.75
2022-11-26T10:13:43.071Z,95540.88
2022-11-26T10:16:18.686Z,95539.09
2022-11-26T10:19:02.632Z,95548.06
2022-11-26T10:21:58.648Z,95533.59
2022-11-26T10:24:41.924Z,95546.56
2022-11-26T10:27:18.359Z,95544.44
2022-11-26T10:29:50.623Z,95545.03
2022-11-26T10:32:37.924Z,95553.44
2022-11-26T10:35:05.715Z,95548.81
2022-11-26T10:37:32.457Z,95542.31
2022-11-26T10:40:18.127Z,95538.41
2022-11-26T10:42:54.988Z,95546.78
2022-11-26T10:45:27.224Z,95541.38
2022-11-26T10:47:53.617Z,95546.31
2022-11-26T10:50:46.615Z,95543.81
2022-11-26T10:53:22.288Z,95541.69
2022-11-26T10:55:49.153Z,95538.47
2022-11-26T10:58:41.889Z,95539.41
2022-11-26T11:01:09.901Z,95541.50
2022-11-26T11:06:44.053Z,95531.53
2022-11-26T11:09:34.178Z,95526.19
2022-11-26T11:12:23.351Z,95525.16
2022-11-26T11:14:51.195Z,95513.34
2022-11-26T11:17:29.241Z,95522.34
2022-11-26T11:20:04.888Z,95509.00
2022-11-26T11:22:31.406Z,95504.94
2022-11-26T11:24:59.725Z,95498.00
2022-11-26T11:27:35.672Z,95497.25
2022-11-26T11:30:02.289Z,95503.81
2022-11-26T11:32:40.360Z,95504.91
2022-11-26T11:35:30.238Z,95499.97
2022-11-26T11:37:57.519Z,95505.63
2022-11-26T11:40:28.767Z,95499.06
2022-11-26T11:43:00.037Z,95509.47
2022-11-26T11:45:46.390Z,95501.84
2022-11-26T11:48:49.535Z,95498.13
2022-11-26T11:51:41.684Z,95496.25
2022-11-26T11:54:27.320Z,95494.81
2022-11-26T11:57:05.115Z,95490.59
2022-11-26T12:00:09.657Z,95490.34
2022-11-26T12:02:59.732Z,95490.69
2022-11-26T12:05:48.738Z,95479.28
2022-11-26T12:08:29.048Z,95490.44
2022-11-26T12:11:27.481Z,95488.81
2022-11-26T12:14:00.953Z,95475.69
2022-11-26T12:16:33.338Z,95484.34
2022-11-26T12:19:15.554Z,95480.88
2022-11-26T12:21:50.948Z,95483.38
2022-11-26T12:24:42.059Z,95482.22
2022-11-26T12:27:46.184Z,95483.22
2022-11-26T12:30:14.271Z,95471.78
2022-11-26T12:32:55.121Z,95471.31
2022-11-26T12:35:33.089Z,95473.50
2022-11-26T12:38:04.666Z,95468.59
2022-11-26T12:40:52.368Z,95467.31
2022-11-26T12:43:25.984Z,95462.19
2022-11-26T12:46:00.145Z,95475.09
2022-11-26T12:48:51.177Z,95472.72
2022-11-26T12:51:34.438Z,95479.00
2022-11-26T12:54:13.793Z,95481.16
2022-11-26T12:56:51.701Z,95483.69
2022-11-26T12:59:43.744Z,95489.78
2022-11-26T13:02:32.025Z,95493.66
2022-11-26T13:04:59.525Z,95488.97
2022-11-26T13:08:20.243Z,95492.00
2022-11-26T13:11:09.999Z,95482.56
2022-11-26T13:14:15.405Z,95484.84
2022-11-26T13:17:00.971Z,95480.84
2022-11-26T13:19:35.896Z,95488.06
2022-11-26T13:22:24.037Z,95483.59
2022-11-26T13:25:19.441Z,95475.03
2022-11-26T13:28:02.890Z,95464.88
2022-11-26T13:30:51.645Z,95472.53
2022-11-26T13:33:36.698Z,95470.72
2022-11-26T13:36:35.017Z,95463.16
2022-11-26T13:39:27.865Z,95469.66
2022-11-26T13:42:26.681Z,95464.97
2022-11-26T13:45:02.161Z,95467.50
2022-11-26T13:47:35.603Z,95469.31
2022-11-26T13:50:16.057Z,95460.06
2022-11-26T13:53:03.951Z,95467.63
2022-11-26T13:55:36.841Z,95475.16
2022-11-26T13:58:07.022Z,95475.16
2022-11-26T14:00:35.596Z,95469.94
2022-11-26T14:03:03.483Z,95464.72
2022-11-26T14:05:48.505Z,95469.94
2022-11-26T14:08:36.773Z,95467.63
2022-11-26T14:11:03.891Z,95470.50
2022-11-26T14:13:33.320Z,95476.28
2022-11-26T14:16:10.386Z,95477.97
2022-11-26T14:18:49.083Z,95483.50
2022-11-26T14:21:16.871Z,95479.59
2022-11-26T14:23:47.147Z,95474.34
2022-11-26T14:26:28.076Z,95478.47
2022-11-26T14:29:06.834Z,95485.69
2022-11-26T14:31:34.300Z,95489.00
2022-11-26T14:34:16.442Z,95492.84
2022-11-26T14:37:02.093Z,95493.34
2022-11-26T14:39:31.577Z,95498.94
2022-11-26T14:42:04.056Z,95501.50
2022-11-26T14:44:32.476Z,95495.16
2022-11-26T14:47:01.592Z,95491.75
2022-11-26T14:49:32.948Z,95495.56
2022-11-26T14:51:59.828Z,95499.63
2022-11-26T14:54:35.166Z,95501.56
2022-11-26T14:57:10.416Z,95500.66
2022-11-26T14:59:36.855Z,95507.53
2022-11-26T15:02:03.828Z,95512.84
2022-11-26T15:04:34.638Z,95507.56
2022-11-26T15:07:01.060Z,95507.97
2022-11-26T15:09:28.347Z,95496.16
2022-11-26T15:12:09.721Z,95515.59
2022-11-26T15:14:44.047Z,95510.84
2022-11-26T15:17:15.634Z,95510.06
2022-11-26T15:19:43.185Z,95510.75
2022-11-26T15:22:22.023Z,95511.91
2022-11-26T15:24:50.592Z,95503.22
2022-11-26T15:27:55.502Z,95505.13
2022-11-26T15:30:25.310Z,95501.25
2022-11-26T15:33:03.088Z,95509.41
2022-11-26T15:35:36.669Z,95509.31
2022-11-26T15:38:18.150Z,95506.09
2022-11-26T15:40:46.913Z,95508.63
2022-11-26T15:43:28.066Z,95514.41
2022-11-26T15:45:58.671Z,95517.19
2022-11-26T15:48:50.836Z,95510.81
2022-11-26T15:51:36.058Z,95507.66
2022-11-26T15:54:05.972Z,95508.59
2022-11-26T15:56:36.220Z,95492.91
2022-11-26T15:59:12.444Z,95504.34
2022-11-26T16:01:43.247Z,95503.25
2022-11-26T16:04:42.447Z,95504.72
2022-11-26T16:07:13.441Z,95493.50
2022-11-26T16:09:40.591Z,95504.31
2022-11-26T16:12:29.196Z,95506.34
2022-11-26T16:15:23.202Z,95500.28
2022-11-26T16:17:50.612Z,95498.16
2022-11-26T16:20:20.124Z,95495.03
2022-11-26T16:22:49.258Z,95497.38
2022-11-26T16:25:26.660Z,95497.91
2022-11-26T16:28:04.976Z,95504.47
2022-11-26T16:30:31.676Z,95501.75
2022-11-26T16:32:58.175Z,95487.63
2022-11-26T16:35:45.206Z,95499.97
2022-11-26T16:38:21.664Z,95495.03
2022-11-26T16:40:48.732Z,95496.03
2022-11-26T16:43:15.690Z,95498.53
2022-11-26T16:45:42.574Z,95498.91
2022-11-26T16:48:20.996Z,95489.94
2022-11-26T16:50:47.386Z,95487.72
2022-11-26T16:53:13.792Z,95485.03
2022-11-26T16:55:40.229Z,95489.88
2022-11-26T16:58:06.708Z,95488.53
2022-11-26T17:00:35.613Z,95488.44
2022-11-26T17:03:02.052Z,95492.03
2022-11-26T17:05:28.696Z,95495.31
2022-11-26T17:07:59.006Z,95494.97
2022-11-26T17:10:28.702Z,95496.91
2022-11-26T17:12:55.661Z,95494.13
2022-11-26T17:15:22.114Z,95493.53
2022-11-26T17:17:49.816Z,95496.56
2022-11-26T17:20:19.424Z,95503.31
2022-11-26T17:22:46.372Z,95495.81
2022-11-26T17:25:13.482Z,95499.06
2022-11-26T17:27:41.181Z,95494.00
2022-11-26T17:30:12.397Z,95499.03
2022-11-26T17:32:38.767Z,95494.53
2022-11-26T17:35:05.371Z,95500.94
2022-11-26T17:37:31.897Z,95495.44
2022-11-26T17:39:58.530Z,95495.88
2022-11-26T17:42:25.529Z,95498.16
2022-11-26T17:44:55.324Z,95495.78
2022-11-26T17:47:26.730Z,95499.94
2022-11-26T17:49:53.906Z,95500.94
2022-11-26T17:52:20.587Z,95507.47
2022-11-26T17:54:47.318Z,95502.16
2022-11-26T17:57:15.344Z,95497.13
2022-11-26T17:59:42.489Z,95502.94
2022-11-26T18:02:10.473Z,95506.00
2022-11-26T18:04:37.273Z,95510.38
2022-11-26T18:07:09.703Z,95504.16
2022-11-26T18:09:36.464Z,95507.53
2022-11-26T18:12:03.922Z,95507.53
2022-11-26T18:14:30.542Z,95504.97
2022-11-26T18:16:56.986Z,95502.38
2022-11-26T18:19:24.101Z,95497.78
2022-11-26T18:21:51.073Z,95507.66
2022-11-26T18:24:17.607Z,95513.19
2022-11-26T18:26:44.145Z,95517.09
2022-11-26T18:29:11.376Z,95517.09
2022-11-26T18:31:39.714Z,95514.88
2022-11-26T18:34:07.842Z,95517.66
2022-11-26T18:36:34.320Z,95513.09
2022-11-26T18:39:03.613Z,95513.09
2022-11-26T18:41:30.110Z,95520.03
2022-11-26T18:43:56.526Z,95514.09
2022-11-26T18:46:22.951Z,95517.22
2022-11-26T18:48:50.220Z,95518.00
2022-11-26T18:51:17.731Z,95509.25
2022-11-26T18:53:44.839Z,95507.91
2022-11-26T18:56:14.283Z,95511.94
2022-11-26T18:58:41.339Z,95513.97
2022-11-26T19:01:16.225Z,95515.09
2022-11-26T19:03:44.437Z,95516.88
2022-11-26T19:06:15.395Z,95518.13
2022-11-26T19:08:42.577Z,95504.63
2022-11-26T19:11:20.740Z,95506.44
2022-11-26T19:13:48.111Z,95504.28
2022-11-26T19:16:17.151Z,95496.19
2022-11-26T19:18:45.238Z,95501.81
2022-11-26T19:21:23.788Z,95506.41
2022-11-26T19:23:51.194Z,95515.28
2022-11-26T19:26:18.470Z,95517.94
2022-11-26T19:28:45.079Z,95519.16
2022-11-26T19:31:14.903Z,95515.66
2022-11-26T19:33:42.243Z,95520.41
2022-11-26T19:36:11.784Z,95516.03
2022-11-26T19:38:38.541Z,95514.78
2022-11-26T19:41:05.784Z,95508.41
2022-11-26T19:43:37.887Z,95502.44
2022-11-26T19:46:12.592Z,95505.50
2022-11-26T19:48:41.031Z,95496.28
2022-11-26T19:51:08.976Z,95482.81
2022-11-26T19:53:36.405Z,95482.19
2022-11-26T19:56:10.930Z,95478.81
2022-11-26T19:58:37.550Z,95482.25
2022-11-26T20:01:10.239Z,95476.19
2022-11-26T20:03:37.672Z,95473.69
2022-11-26T20:06:06.208Z,95476.16
2022-11-26T20:08:33.997Z,95473.47
2022-11-26T20:11:05.480Z,95473.34
2022-11-26T20:13:32.186Z,95475.00
2022-11-26T20:15:58.589Z,95479.38
2022-11-26T20:18:25.004Z,95476.22
2022-11-26T20:20:58.891Z,95469.94
2022-11-26T20:23:26.169Z,95478.81
2022-11-26T20:25:53.362Z,95479.81
2022-11-26T20:28:20.183Z,95482.63
2022-11-26T20:30:46.983Z,95482.63
2022-11-26T20:33:15.695Z,95475.88
2022-11-26T20:35:42.977Z,95484.31
2022-11-26T20:38:09.675Z,95490.84
2022-11-26T20:40:39.928Z,95486.81
2022-11-26T20:43:06.368Z,95479.28
2022-11-26T20:45:33.130Z,95479.28
2022-11-26T20:47:59.670Z,95476.91
2022-11-26T20:50:26.175Z,95472.53
2022-11-26T20:52:52.687Z,95466.59
2022-11-26T20:55:21.890Z,95472.19
2022-11-26T20:57:51.116Z,95466.25
2022-11-26T21:00:20.435Z,95455.59
2022-11-26T21:02:50.256Z,95457.47
2022-11-26T21:05:16.988Z,95455.47
2022-11-26T21:07:43.491Z,95449.97
2022-11-26T21:10:10.616Z,95455.31
2022-11-26T21:12:37.706Z,95452.19
2022-11-26T21:15:05.473Z,95459.34
2022-11-26T21:17:31.885Z,95451.81
2022-11-26T21:19:58.274Z,95453.06
2022-11-26T21:22:24.716Z,95450.47
2022-11-26T21:24:51.246Z,95454.06
2022-11-26T21:27:17.754Z,95449.13
2022-11-26T21:29:46.116Z,95452.72
2022-11-26T21:32:12.553Z,95458.31
2022-11-26T21:34:38.928Z,95452.44
2022-11-26T21:37:05.415Z,95468.44
2022-11-26T21:39:31.945Z,95471.34
2022-11-26T21:41:58.312Z,95471.97
2022-11-26T21:44:24.680Z,95471.19
2022-11-26T21:46:51.119Z,95465.03
2022-11-26T21:49:17.638Z,95466.97
2022-11-26T21:51:44.093Z,95462.56
2022-11-26T21:54:10.663Z,95463.16
2022-11-26T21:56:37.173Z,95455.44
2022-11-26T21:59:04.194Z,95463.16
2022-11-26T22:01:35.834Z,95462.72
2022-11-26T22:04:07.181Z,95464.09
2022-11-26T22:06:34.467Z,95471.94
2022-11-26T22:09:00.975Z,95469.28
2022-11-26T22:11:30.379Z,95473.78
2022-11-26T22:13:56.861Z,95468.53
2022-11-26T22:16:25.468Z,95467.88
2022-11-26T22:18:53.060Z,95467.66
2022-11-26T22:21:25.336Z,95464.88
2022-11-26T22:23:53.076Z,95467.22
2022-11-26T22:26:20.563Z,95462.63
2022-11-26T22:28:47.657Z,95468.81
2022-11-26T22:31:25.388Z,95472.38
2022-11-26T22:33:58.114Z,95477.53
2022-11-26T22:36:25.323Z,95467.00
2022-11-26T22:38:52.436Z,95469.38
2022-11-26T22:41:19.052Z,95459.41
2022-11-26T22:43:45.780Z,95460.75
2022-11-26T22:46:15.527Z,95460.75
2022-11-26T22:48:42.817Z,95456.38
2022-11-26T22:51:09.942Z,95458.19
2022-11-26T22:53:37.013Z,95462.53
2022-11-26T22:56:04.133Z,95460.75
2022-11-26T22:58:32.678Z,95457.81
2022-11-26T23:01:09.258Z,95452.19
2022-11-26T23:03:37.932Z,95466.09
2022-11-26T23:06:08.379Z,95453.84
2022-11-26T23:08:36.001Z,95453.94
2022-11-26T23:11:37.619Z,95449.66
2022-11-26T23:14:07.176Z,95447.38
2022-11-26T23:16:35.162Z,95455.91
2022-11-26T23:19:02.651Z,95450.53
2022-11-26T23:21:31.914Z,95448.19
2022-11-26T23:23:58.413Z,95447.38
2022-11-26T23:26:30.713Z,95443.22
2022-11-26T23:28:58.281Z,95443.78
2022-11-26T23:31:30.467Z,95443.78
2022-11-26T23:33:57.576Z,95445.38
2022-11-26T23:36:25.211Z,95455.69
2022-11-26T23:38:51.829Z,95451.31
2022-11-26T23:41:18.286Z,95446.38
2022-11-26T23:43:45.609Z,95445.38
2022-11-26T23:46:25.709Z,95439.97
2022-11-26T23:48:52.303Z,95448.94
2022-11-26T23:51:22.815Z,95444.22
2022-11-26T23:53:50.621Z,95436.94
2022-11-26T23:56:21.015Z,95439.97
2022-11-26T23:58:51.918Z,95429.84
